Tres Marias, Brazil
Current Conditions -  °F | °C
As of 10:00 PM on Tuesday 25 Nov 2014 (Local Time) from SBLS Reporting Station
Overcast Overcast  
Wind Chill: 70°   Ceiling: 7000
Heat Index: 70°   Visibility: 6mi
Dew Point: 66°   Wind: 5mph
Humidity: 88%   Direction: 80°E
Pressure: 30"   Gusts: NA
Location:  18.21°S, 45.24°W
Report Text: SBLS 260000Z 08004KT 030V090 9999 SCT020 SCT050 OVC070 21/19 Q1016
Loading
Personal Weather Stations






























Interactive Weather Map New forecast layout! Learn more

10-Day Weather Forecast

Advertisements
Track Severe Weather on mobile